Time;durP1;ratioP1;P1;durP2;ratioP2;P2;SDS_P1;SDS_P2;PMS_P1;PMS_P2;Temp;Humidity;BMP_temperature;BMP_pressure;BME280_temperature;BME280_humidity;BME280_pressure;Samples;Min_cycle;Max_cycle;Signal;HPM_P1;HPM_P2
2022/01/03 08:50:27;;;;;;;21.55;16.27;;;;;;;;;;6186618;22;21382;-84
2022/01/03 09:39:32;;;;;;;25.75;18.05;;;;;;;;;;6205393;22;20061;-85
2022/01/03 09:42:04;;;;;;;24.20;16.90;;;;;;;;;;6218194;23;20023;-86
2022/01/03 09:44:32;;;;;;;26.15;16.25;;;;;;;;;;6220108;23;20000;-85
2022/01/03 09:47:00;;;;;;;18.08;13.82;;;;;;;;;;6218669;23;19997;-86
2022/01/03 09:49:29;;;;;;;21.15;15.35;;;;;;;;;;6218737;23;20032;-84
2022/01/03 09:51:56;;;;;;;19.55;14.82;;;;;;;;;;6220337;23;20075;-85
2022/01/03 09:54:22;;;;;;;18.00;13.30;;;;;;;;;;6218696;23;20001;-86
2022/01/03 09:56:50;;;;;;;111.95;20.75;;;;;;;;;;6218519;23;20095;-83
2022/01/03 09:59:16;;;;;;;22.65;14.13;;;;;;;;;;6218717;23;20027;-87
2022/01/03 10:01:42;;;;;;;20.27;14.88;;;;;;;;;;6219840;23;20001;-87
2022/01/03 10:04:10;;;;;;;21.70;15.45;;;;;;;;;;6219766;23;20024;-84
2022/01/03 10:06:36;;;;;;;20.42;15.07;;;;;;;;;;6218463;23;20389;-84
2022/01/03 10:09:02;;;;;;;21.35;14.82;;;;;;;;;;6220404;23;20001;-85
2022/01/03 10:11:29;;;;;;;21.65;15.75;;;;;;;;;;6218982;23;20095;-85
2022/01/03 10:13:54;;;;;;;22.75;17.45;;;;;;;;;;6219119;23;20514;-85
2022/01/03 10:16:20;;;;;;;20.75;16.15;;;;;;;;;;6219344;23;20415;-85
2022/01/03 10:18:46;;;;;;;23.88;17.38;;;;;;;;;;6220081;23;20004;-84
2022/01/03 10:21:12;;;;;;;20.42;16.25;;;;;;;;;;6220761;23;20091;-82
2022/01/03 10:23:55;;;;;;;19.92;16.30;;;;;;;;;;6225127;23;20063;-83
2022/01/03 10:26:21;;;;;;;22.08;16.80;;;;;;;;;;6224313;23;20004;-84
2022/01/03 10:28:47;;;;;;;20.40;16.45;;;;;;;;;;6223291;23;20028;-83
2022/01/03 10:31:22;;;;;;;20.10;16.52;;;;;;;;;;6221511;23;20032;-85
2022/01/03 10:34:09;;;;;;;22.58;17.15;;;;;;;;;;6222293;23;20028;-84
2022/01/03 10:36:38;;;;;;;21.52;16.55;;;;;;;;;;6221468;23;20439;-86
2022/01/03 10:39:14;;;;;;;22.60;17.25;;;;;;;;;;6218578;23;20004;-85
2022/01/03 10:41:40;;;;;;;21.48;16.98;;;;;;;;;;6218411;23;20044;-85
2022/01/03 10:44:06;;;;;;;20.27;17.88;;;;;;;;;;6218668;23;20009;-86
2022/01/03 10:46:36;;;;;;;21.65;17.67;;;;;;;;;;6217019;23;20001;-86
2022/01/03 10:49:15;;;;;;;22.48;17.92;;;;;;;;;;6217074;23;20016;-86
2022/01/03 10:51:42;;;;;;;23.05;18.33;;;;;;;;;;6218256;23;20309;-85
2022/01/03 10:54:09;;;;;;;23.27;19.05;;;;;;;;;;6216841;23;20016;-86
2022/01/03 10:56:43;;;;;;;23.52;18.67;;;;;;;;;;6216454;23;20086;-86
2022/01/03 10:59:25;;;;;;;21.45;17.77;;;;;;;;;;6216673;23;20011;-86
2022/01/03 11:02:12;;;;;;;21.85;17.33;;;;;;;;;;6217877;23;20005;-88
2022/01/03 11:04:55;;;;;;;21.95;18.73;;;;;;;;;;6216540;23;20013;-86
2022/01/03 11:13:11;;;;;;;23.75;18.98;;;;;;;;;;6218284;23;20051;-86
2022/01/03 11:15:39;;;;;;;24.88;20.05;;;;;;;;;;6216279;23;20004;-87
2022/01/03 11:18:21;;;;;;;25.33;19.58;;;;;;;;;;6217956;23;20028;-86
2022/01/03 11:21:02;;;;;;;23.63;20.00;;;;;;;;;;6217904;23;20024;-84
2022/01/03 11:23:28;;;;;;;24.60;19.77;;;;;;;;;;6218347;23;20008;-85
2022/01/03 11:25:54;;;;;;;24.67;19.67;;;;;;;;;;6218423;23;20446;-86
2022/01/03 11:28:26;;;;;;;24.88;19.85;;;;;;;;;;6217435;23;20331;-85
2022/01/03 11:30:53;;;;;;;24.23;19.23;;;;;;;;;;6217771;23;20001;-86
2022/01/03 11:33:20;;;;;;;24.83;20.55;;;;;;;;;;6216791;23;20028;-85
2022/01/03 11:35:48;;;;;;;24.77;19.75;;;;;;;;;;6217538;23;20009;-87
2022/01/03 11:38:18;;;;;;;25.15;19.38;;;;;;;;;;6216769;23;20012;-86
2022/01/03 11:40:43;;;;;;;24.40;19.27;;;;;;;;;;6218130;23;20009;-86
2022/01/03 11:43:09;;;;;;;23.63;18.60;;;;;;;;;;6216606;23;20305;-86
2022/01/03 11:45:36;;;;;;;26.92;19.75;;;;;;;;;;6217624;23;20047;-86
2022/01/03 11:48:02;;;;;;;24.42;19.88;;;;;;;;;;6216034;23;20031;-85
2022/01/03 11:50:28;;;;;;;28.25;20.73;;;;;;;;;;6216228;23;20001;-82
2022/01/03 11:52:54;;;;;;;26.15;20.65;;;;;;;;;;6216011;23;20000;-85
2022/01/03 11:55:22;;;;;;;25.45;19.20;;;;;;;;;;6215361;23;20010;-89
2022/01/03 12:06:00;;;;;;;29.92;20.98;;;;;;;;;;6217037;23;20351;-86
2022/01/03 12:08:34;;;;;;;27.08;20.42;;;;;;;;;;6217671;23;20028;-90
2022/01/03 12:11:01;;;;;;;27.38;18.90;;;;;;;;;;6216604;23;20476;-90
2022/01/03 12:13:48;;;;;;;27.42;19.60;;;;;;;;;;6216142;23;20005;-90
2022/01/03 12:16:14;;;;;;;28.60;20.88;;;;;;;;;;6216103;23;20365;-89
2022/01/03 12:18:59;;;;;;;32.90;21.60;;;;;;;;;;6216224;23;20058;-89
2022/01/03 12:21:50;;;;;;;30.52;20.13;;;;;;;;;;6216220;23;20005;-89
2022/01/03 12:24:44;;;;;;;28.40;21.15;;;;;;;;;;6216934;23;20009;-90
2022/01/03 12:27:10;;;;;;;32.08;21.67;;;;;;;;;;6112901;23;20037;-90
2022/01/03 12:29:56;;;;;;;32.63;20.98;;;;;;;;;;6216824;23;20008;-90
2022/01/03 12:32:24;;;;;;;31.10;22.05;;;;;;;;;;6217032;23;20015;-89
2022/01/03 12:35:11;;;;;;;31.30;22.02;;;;;;;;;;6216673;23;20036;-89
2022/01/03 12:37:42;;;;;;;33.95;23.05;;;;;;;;;;6216397;23;20493;-89
2022/01/03 12:40:07;;;;;;;32.72;23.20;;;;;;;;;;6215929;23;20500;-90
2022/01/03 12:42:45;;;;;;;34.95;23.52;;;;;;;;;;6216903;23;20032;-89
2022/01/03 12:45:12;;;;;;;38.33;24.38;;;;;;;;;;6218319;23;20013;-89
2022/01/03 12:47:39;;;;;;;38.25;25.38;;;;;;;;;;6218193;23;20447;-89
2022/01/03 12:50:29;;;;;;;40.08;24.42;;;;;;;;;;6218731;23;20127;-89
2022/01/03 12:52:59;;;;;;;37.78;24.30;;;;;;;;;;6216952;23;20008;-90
2022/01/03 12:55:37;;;;;;;40.33;24.20;;;;;;;;;;6216018;23;20020;-90
2022/01/03 12:58:14;;;;;;;37.03;23.50;;;;;;;;;;6216460;23;20005;-89
2022/01/03 13:00:46;;;;;;;39.92;23.80;;;;;;;;;;6216628;23;20009;-89
2022/01/03 13:03:25;;;;;;;38.20;23.88;;;;;;;;;;6216404;23;20058;-89
2022/01/03 13:06:06;;;;;;;36.88;24.77;;;;;;;;;;6216140;23;20007;-90
2022/01/03 13:08:36;;;;;;;41.13;23.58;;;;;;;;;;6215518;23;20008;-89
2022/01/03 13:11:08;;;;;;;37.53;23.88;;;;;;;;;;6217050;23;19997;-89
2022/01/03 13:13:35;;;;;;;39.70;25.40;;;;;;;;;;6215916;23;20055;-89
2022/01/03 13:16:25;;;;;;;37.55;23.95;;;;;;;;;;6217162;23;20492;-89
2022/01/03 13:18:53;;;;;;;39.45;23.40;;;;;;;;;;6216526;23;20004;-88
2022/01/03 13:21:20;;;;;;;39.22;24.90;;;;;;;;;;6216553;23;20005;-90
2022/01/03 13:23:54;;;;;;;39.95;24.65;;;;;;;;;;6216039;23;20008;-88
2022/01/03 13:26:21;;;;;;;39.65;23.85;;;;;;;;;;6216766;23;20423;-89
2022/01/03 13:28:52;;;;;;;41.30;25.45;;;;;;;;;;6215783;23;20011;-90
2022/01/03 13:31:18;;;;;;;38.72;24.38;;;;;;;;;;6215891;23;20013;-90
2022/01/03 13:33:44;;;;;;;41.05;25.25;;;;;;;;;;6216480;23;20055;-88
2022/01/03 13:36:17;;;;;;;41.22;25.25;;;;;;;;;;6215797;23;20424;-88
2022/01/03 13:39:34;;;;;;;39.58;24.67;;;;;;;;;;6220829;23;20023;-92
2022/01/03 13:42:08;;;;;;;39.15;23.55;;;;;;;;;;6211264;23;20044;-92
2022/01/03 13:49:59;;;;;;;38.15;22.92;;;;;;;;;;6237645;23;20078;-92
2022/01/03 13:52:30;;;;;;;38.95;23.80;;;;;;;;;;6237964;23;20004;-93
2022/01/03 13:57:21;;;;;;;40.85;24.20;;;;;;;;;;6223206;22;20032;-92
2022/01/03 13:59:55;;;;;;;39.40;22.88;;;;;;;;;;6237374;23;20331;-91
2022/01/03 14:02:23;;;;;;;37.05;23.58;;;;;;;;;;6223127;23;20420;-91
2022/01/03 14:04:48;;;;;;;36.60;22.45;;;;;;;;;;6224876;23;20062;-89
2022/01/03 14:07:16;;;;;;;38.08;23.10;;;;;;;;;;6221681;23;20090;-89
2022/01/03 14:09:43;;;;;;;40.22;23.52;;;;;;;;;;6222021;23;20008;-88
2022/01/03 14:12:13;;;;;;;42.00;24.83;;;;;;;;;;6222401;23;20020;-88
2022/01/03 14:14:40;;;;;;;39.40;23.73;;;;;;;;;;6222713;23;20005;-88
2022/01/03 14:17:07;;;;;;;36.97;23.77;;;;;;;;;;6222750;23;20004;-89
2022/01/03 14:19:35;;;;;;;38.58;22.65;;;;;;;;;;6222150;23;20031;-88
2022/01/03 14:22:17;;;;;;;40.58;23.90;;;;;;;;;;6224223;23;20011;-90
2022/01/03 14:25:17;;;;;;;37.72;22.00;;;;;;;;;;6225532;23;20055;-92
2022/01/03 14:27:47;;;;;;;36.38;22.27;;;;;;;;;;6161385;23;20069;-90
2022/01/03 14:30:20;;;;;;;38.33;22.13;;;;;;;;;;6253939;23;20004;-89
2022/01/03 14:32:56;;;;;;;37.85;22.83;;;;;;;;;;6229293;23;20087;-90
2022/01/03 14:35:48;;;;;;;39.83;23.35;;;;;;;;;;6211508;23;20016;-93
2022/01/03 14:38:16;;;;;;;41.25;23.35;;;;;;;;;;6219912;23;20011;-92
2022/01/03 14:40:59;;;;;;;39.40;22.63;;;;;;;;;;6203851;23;20008;-93
2022/01/03 14:43:28;;;;;;;37.83;23.38;;;;;;;;;;6222199;23;20012;-92
2022/01/03 14:46:05;;;;;;;42.15;25.05;;;;;;;;;;6224996;23;20030;-91
2022/01/03 14:48:30;;;;;;;36.47;23.75;;;;;;;;;;6224808;23;20070;-92
2022/01/03 14:51:11;;;;;;;41.88;23.08;;;;;;;;;;6225575;23;20008;-94
2022/01/03 14:53:37;;;;;;;38.15;22.60;;;;;;;;;;6223489;23;20399;-89
2022/01/03 14:56:02;;;;;;;37.72;22.33;;;;;;;;;;6224410;23;20008;-92
2022/01/03 14:58:28;;;;;;;36.95;21.90;;;;;;;;;;6222815;23;20023;-90
2022/01/03 15:00:54;;;;;;;37.38;22.05;;;;;;;;;;6222999;23;20060;-90
2022/01/03 15:03:22;;;;;;;35.08;21.90;;;;;;;;;;6223915;23;20007;-91
2022/01/03 15:05:48;;;;;;;35.45;22.02;;;;;;;;;;6222914;23;20032;-92
2022/01/03 15:08:14;;;;;;;38.17;22.30;;;;;;;;;;6222696;23;20074;-92
2022/01/03 15:10:39;;;;;;;39.63;23.15;;;;;;;;;;6224085;23;20004;-91
2022/01/03 15:13:05;;;;;;;37.80;22.92;;;;;;;;;;6223404;23;20003;-91
2022/01/03 15:15:32;;;;;;;36.63;21.55;;;;;;;;;;6223386;23;20004;-91
2022/01/03 15:17:58;;;;;;;35.65;21.73;;;;;;;;;;6222709;23;20059;-89
2022/01/03 15:20:25;;;;;;;36.67;21.50;;;;;;;;;;6222404;23;20001;-91
2022/01/03 15:22:52;;;;;;;35.05;21.30;;;;;;;;;;6223125;23;20027;-92
2022/01/03 15:25:21;;;;;;;36.03;22.00;;;;;;;;;;6222931;23;20011;-93
2022/01/03 15:27:47;;;;;;;39.58;22.73;;;;;;;;;;6223041;23;20004;-93
2022/01/03 15:30:16;;;;;;;34.85;21.10;;;;;;;;;;6223403;23;20019;-93
2022/01/03 15:32:42;;;;;;;38.08;22.25;;;;;;;;;;6223016;23;20142;-91
2022/01/03 15:35:07;;;;;;;35.00;21.25;;;;;;;;;;6223239;23;20000;-93
2022/01/03 15:37:33;;;;;;;44.30;25.38;;;;;;;;;;6222432;23;20335;-90
2022/01/03 15:39:58;;;;;;;36.38;22.70;;;;;;;;;;6223969;23;20012;-89
2022/01/03 15:42:24;;;;;;;37.92;22.75;;;;;;;;;;6222770;23;20004;-89
2022/01/03 15:44:49;;;;;;;37.65;22.90;;;;;;;;;;6222607;23;20004;-88
2022/01/03 15:47:15;;;;;;;39.90;23.40;;;;;;;;;;6221642;23;20019;-86
2022/01/03 15:49:40;;;;;;;38.67;22.80;;;;;;;;;;6221435;23;20423;-86
2022/01/03 15:52:06;;;;;;;35.72;22.17;;;;;;;;;;6221696;23;20087;-86
2022/01/03 15:54:32;;;;;;;33.55;20.40;;;;;;;;;;6221985;23;20008;-84
2022/01/03 15:56:59;;;;;;;37.03;22.67;;;;;;;;;;6221132;23;20031;-85
2022/01/03 15:59:25;;;;;;;37.10;22.67;;;;;;;;;;6221094;23;20023;-85
2022/01/03 16:01:50;;;;;;;43.55;22.60;;;;;;;;;;6221275;23;20009;-85
2022/01/03 16:04:15;;;;;;;42.80;24.00;;;;;;;;;;6220906;23;20023;-86
2022/01/03 16:06:41;;;;;;;49.97;23.13;;;;;;;;;;6247969;23;20004;-86
2022/01/03 16:09:07;;;;;;;37.35;22.52;;;;;;;;;;6220901;23;20087;-86
2022/01/03 16:11:32;;;;;;;43.33;27.58;;;;;;;;;;6220908;23;20018;-86
2022/01/03 16:13:58;;;;;;;36.45;21.75;;;;;;;;;;6221024;23;20008;-85
2022/01/03 16:16:24;;;;;;;39.05;22.60;;;;;;;;;;6221161;23;21379;-85
2022/01/03 16:18:49;;;;;;;36.70;23.88;;;;;;;;;;6220960;23;20378;-85
2022/01/03 16:21:15;;;;;;;33.65;21.35;;;;;;;;;;6221000;23;20006;-86
2022/01/03 16:23:41;;;;;;;38.70;23.23;;;;;;;;;;6220998;23;20000;-87
2022/01/03 16:26:07;;;;;;;37.55;22.67;;;;;;;;;;6220519;23;20051;-85
2022/01/03 16:28:33;;;;;;;38.30;22.17;;;;;;;;;;6220883;23;20007;-85
2022/01/03 16:30:58;;;;;;;34.97;21.20;;;;;;;;;;6221718;23;20008;-86
2022/01/03 16:33:24;;;;;;;33.25;20.92;;;;;;;;;;6220908;23;20004;-86
2022/01/03 16:35:50;;;;;;;34.95;21.23;;;;;;;;;;6220893;23;20083;-86
2022/01/03 16:38:17;;;;;;;36.97;22.27;;;;;;;;;;6220705;23;20089;-85
2022/01/03 16:40:46;;;;;;;36.03;21.85;;;;;;;;;;6220843;23;20011;-85
2022/01/03 16:43:13;;;;;;;37.75;22.92;;;;;;;;;;6220810;23;20448;-86
2022/01/03 16:45:39;;;;;;;40.97;22.90;;;;;;;;;;6221001;23;20015;-85
2022/01/03 16:48:06;;;;;;;40.42;24.70;;;;;;;;;;6220892;23;20091;-86
2022/01/03 16:50:36;;;;;;;39.78;24.35;;;;;;;;;;6220861;23;20012;-86
2022/01/03 16:53:02;;;;;;;48.40;25.33;;;;;;;;;;6220236;23;20008;-86
2022/01/03 16:55:28;;;;;;;42.25;24.77;;;;;;;;;;6220476;23;20058;-89
2022/01/03 16:57:54;;;;;;;40.13;24.25;;;;;;;;;;6220183;23;20023;-87
2022/01/03 17:00:20;;;;;;;39.13;23.38;;;;;;;;;;6220620;23;20382;-87
2022/01/03 17:02:45;;;;;;;40.63;24.63;;;;;;;;;;6221020;23;20012;-86
2022/01/03 17:05:11;;;;;;;38.28;23.15;;;;;;;;;;6221120;23;20008;-87
2022/01/03 17:07:36;;;;;;;42.72;23.13;;;;;;;;;;6220754;23;20088;-86
2022/01/03 17:10:02;;;;;;;39.63;22.98;;;;;;;;;;6220352;23;20067;-86
2022/01/03 17:12:28;;;;;;;37.83;23.60;;;;;;;;;;6220657;23;20431;-87
2022/01/03 17:14:53;;;;;;;40.63;24.25;;;;;;;;;;6220737;23;20011;-85
2022/01/03 17:17:19;;;;;;;41.78;23.65;;;;;;;;;;6220379;23;20503;-85
2022/01/03 17:19:45;;;;;;;41.92;22.92;;;;;;;;;;6220627;23;20008;-85
2022/01/03 17:22:10;;;;;;;37.25;23.35;;;;;;;;;;6220355;23;20054;-86
2022/01/03 17:24:36;;;;;;;38.15;23.23;;;;;;;;;;6220608;23;20038;-86
2022/01/03 17:27:02;;;;;;;43.80;26.15;;;;;;;;;;6220648;23;20019;-85
2022/01/03 17:29:28;;;;;;;44.40;27.65;;;;;;;;;;6247096;23;19996;-86
2022/01/03 17:31:54;;;;;;;42.28;25.20;;;;;;;;;;6220349;23;20000;-85
2022/01/03 17:34:19;;;;;;;40.13;24.80;;;;;;;;;;6221137;23;20010;-85
2022/01/03 17:36:44;;;;;;;41.97;24.05;;;;;;;;;;6220575;23;19996;-86
2022/01/03 17:39:10;;;;;;;41.55;23.95;;;;;;;;;;6247596;23;20000;-86
2022/01/03 17:41:35;;;;;;;39.47;23.30;;;;;;;;;;6220900;23;20420;-86
2022/01/03 17:44:01;;;;;;;40.95;25.67;;;;;;;;;;6220622;23;20008;-87
2022/01/03 17:46:26;;;;;;;41.03;24.48;;;;;;;;;;6221093;23;20008;-87
2022/01/03 17:48:52;;;;;;;53.05;29.73;;;;;;;;;;6220344;23;20008;-86
2022/01/03 17:51:17;;;;;;;53.70;28.65;;;;;;;;;;6220409;23;20035;-87
2022/01/03 17:53:44;;;;;;;40.45;24.10;;;;;;;;;;6220813;23;20386;-86
2022/01/03 17:56:11;;;;;;;39.03;24.52;;;;;;;;;;6222226;23;20003;-86
2022/01/03 17:58:38;;;;;;;43.53;24.98;;;;;;;;;;6217356;23;20074;-86
2022/01/03 18:01:05;;;;;;;42.15;23.40;;;;;;;;;;6217812;23;20008;-86
2022/01/03 18:03:31;;;;;;;42.25;25.60;;;;;;;;;;6217810;23;20039;-86
2022/01/03 18:05:57;;;;;;;42.90;25.25;;;;;;;;;;6217786;23;20012;-86
2022/01/03 18:08:22;;;;;;;43.70;26.55;;;;;;;;;;6222394;23;20416;-86
2022/01/03 18:10:48;;;;;;;42.38;26.70;;;;;;;;;;6223677;23;20063;-88
2022/01/03 18:13:14;;;;;;;40.13;23.90;;;;;;;;;;6223790;23;20024;-86
2022/01/03 18:15:40;;;;;;;38.00;23.27;;;;;;;;;;6222389;23;20008;-88
2022/01/03 18:18:06;;;;;;;38.80;23.15;;;;;;;;;;6217908;23;20012;-89
2022/01/03 18:20:32;;;;;;;39.90;24.20;;;;;;;;;;6217595;23;20028;-87
2022/01/03 18:22:59;;;;;;;40.03;24.15;;;;;;;;;;6218377;23;20036;-86
2022/01/03 18:25:25;;;;;;;40.25;23.83;;;;;;;;;;6217696;23;20336;-87
2022/01/03 18:27:51;;;;;;;41.65;25.70;;;;;;;;;;6217507;23;20004;-88
2022/01/03 18:30:17;;;;;;;39.63;25.27;;;;;;;;;;6217873;23;20336;-88
2022/01/03 18:32:43;;;;;;;42.00;25.20;;;;;;;;;;6217540;23;20008;-87
2022/01/03 18:35:09;;;;;;;43.67;24.65;;;;;;;;;;6217349;23;20000;-88
2022/01/03 18:37:34;;;;;;;40.67;22.95;;;;;;;;;;6216925;23;20305;-88
2022/01/03 18:40:00;;;;;;;41.13;24.45;;;;;;;;;;6216945;23;20032;-87
2022/01/03 18:42:26;;;;;;;40.58;24.48;;;;;;;;;;6217281;23;20012;-87
2022/01/03 18:44:51;;;;;;;42.05;23.65;;;;;;;;;;6218137;23;20072;-89
2022/01/03 18:47:21;;;;;;;38.55;24.40;;;;;;;;;;6217882;23;20425;-88
2022/01/03 18:49:47;;;;;;;42.88;23.13;;;;;;;;;;6216979;23;20007;-88
2022/01/03 18:52:13;;;;;;;36.15;23.52;;;;;;;;;;6217245;23;20031;-88
2022/01/03 18:54:38;;;;;;;36.97;22.35;;;;;;;;;;6217181;23;20016;-89
2022/01/03 18:57:04;;;;;;;38.25;22.38;;;;;;;;;;6217510;23;20008;-90
2022/01/03 18:59:29;;;;;;;39.83;20.92;;;;;;;;;;6246102;23;20016;-89
2022/01/03 19:01:55;;;;;;;39.20;22.35;;;;;;;;;;6222796;23;20008;-89
2022/01/03 19:04:21;;;;;;;36.92;22.10;;;;;;;;;;6222788;23;20334;-86
2022/01/03 19:06:47;;;;;;;35.33;20.63;;;;;;;;;;6221603;23;20036;-89
2022/01/03 19:09:12;;;;;;;36.80;21.50;;;;;;;;;;6222041;23;20001;-90
2022/01/03 19:11:38;;;;;;;34.08;20.20;;;;;;;;;;6221789;23;20008;-86
2022/01/03 19:14:04;;;;;;;33.05;20.98;;;;;;;;;;6247940;23;20000;-87
2022/01/03 19:16:29;;;;;;;40.00;22.15;;;;;;;;;;6222333;23;20095;-87
2022/01/03 19:18:55;;;;;;;38.65;22.58;;;;;;;;;;6222012;23;20050;-88
2022/01/03 19:21:20;;;;;;;39.47;22.63;;;;;;;;;;6221785;23;20008;-88
2022/01/03 19:23:46;;;;;;;38.83;23.83;;;;;;;;;;6222038;23;20412;-88
2022/01/03 19:26:14;;;;;;;38.75;23.70;;;;;;;;;;6248284;23;20469;-85
2022/01/03 19:28:40;;;;;;;38.55;22.73;;;;;;;;;;6222136;23;20015;-87
2022/01/03 19:31:07;;;;;;;39.72;23.38;;;;;;;;;;6222339;23;20446;-87
2022/01/03 19:38:47;;;;;;;38.67;23.80;;;;;;;;;;6248831;23;20010;-87
2022/01/03 19:41:15;;;;;;;40.78;23.25;;;;;;;;;;6222181;23;20032;-87
2022/01/03 19:43:40;;;;;;;38.58;22.73;;;;;;;;;;6221909;23;20004;-87
2022/01/03 19:46:06;;;;;;;39.60;23.38;;;;;;;;;;6221680;23;20007;-87
2022/01/03 19:48:34;;;;;;;42.30;24.15;;;;;;;;;;6221510;23;20012;-87
2022/01/03 19:50:59;;;;;;;40.67;24.02;;;;;;;;;;6222053;23;20063;-86
2022/01/03 19:53:25;;;;;;;40.15;23.10;;;;;;;;;;6221455;23;20047;-86
2022/01/03 19:55:50;;;;;;;40.75;24.92;;;;;;;;;;6221786;23;20094;-88
2022/01/03 19:58:16;;;;;;;43.35;24.42;;;;;;;;;;6221237;23;20340;-87
2022/01/03 20:00:42;;;;;;;40.15;23.67;;;;;;;;;;6221882;23;20064;-87
2022/01/03 20:03:07;;;;;;;41.90;23.90;;;;;;;;;;6248680;23;20083;-87
2022/01/03 20:05:33;;;;;;;42.60;24.02;;;;;;;;;;6222424;23;20324;-87
2022/01/03 20:08:01;;;;;;;60.65;33.50;;;;;;;;;;6221950;23;20000;-86
2022/01/03 20:10:27;;;;;;;66.55;36.97;;;;;;;;;;6248584;23;20004;-87
2022/01/03 20:12:54;;;;;;;52.83;30.95;;;;;;;;;;6222090;23;20065;-86
2022/01/03 20:15:20;;;;;;;58.83;33.15;;;;;;;;;;6221748;23;20057;-87
2022/01/03 20:17:46;;;;;;;58.15;31.65;;;;;;;;;;6221502;23;20004;-87
2022/01/03 20:20:12;;;;;;;52.30;28.50;;;;;;;;;;6221982;23;20008;-87
2022/01/03 20:22:39;;;;;;;45.00;26.60;;;;;;;;;;6222280;23;20004;-86
2022/01/03 20:25:06;;;;;;;56.38;30.45;;;;;;;;;;6222287;23;20004;-85
2022/01/03 20:27:32;;;;;;;46.03;26.23;;;;;;;;;;6221900;23;20335;-85
2022/01/03 20:29:58;;;;;;;49.92;26.48;;;;;;;;;;6221816;23;20099;-86
2022/01/03 20:32:23;;;;;;;46.45;27.73;;;;;;;;;;6221856;23;20000;-86
2022/01/03 20:34:49;;;;;;;49.35;28.40;;;;;;;;;;6222045;23;20094;-86
2022/01/03 20:37:17;;;;;;;46.95;28.02;;;;;;;;;;6222045;23;20035;-87
2022/01/03 20:39:43;;;;;;;49.58;28.40;;;;;;;;;;6221826;23;20061;-85
2022/01/03 20:42:09;;;;;;;46.75;27.40;;;;;;;;;;6222459;23;20008;-87
2022/01/03 20:44:36;;;;;;;50.58;29.10;;;;;;;;;;6222413;23;20011;-87
2022/01/03 20:47:03;;;;;;;48.42;27.42;;;;;;;;;;6222719;23;20012;-87
2022/01/03 20:49:28;;;;;;;45.03;26.15;;;;;;;;;;6222616;23;20008;-87
2022/01/03 20:51:54;;;;;;;46.60;25.80;;;;;;;;;;6223137;23;20063;-87
2022/01/03 20:54:21;;;;;;;46.53;27.73;;;;;;;;;;6223129;23;20024;-87
2022/01/03 20:56:51;;;;;;;51.25;27.90;;;;;;;;;;6223581;23;20087;-87
2022/01/03 20:59:20;;;;;;;52.60;28.27;;;;;;;;;;6222995;23;20085;-87
2022/01/03 21:01:46;;;;;;;55.80;31.95;;;;;;;;;;6223051;23;20015;-88
2022/01/03 21:04:11;;;;;;;56.20;31.33;;;;;;;;;;6222541;23;19996;-87
2022/01/03 21:06:37;;;;;;;57.55;33.08;;;;;;;;;;6221776;23;20005;-88
2022/01/03 21:09:05;;;;;;;54.67;31.40;;;;;;;;;;6222503;23;20086;-86
2022/01/03 21:11:31;;;;;;;52.15;29.08;;;;;;;;;;6222082;23;20004;-87
2022/01/03 21:13:56;;;;;;;48.70;27.77;;;;;;;;;;6222418;23;20015;-87
2022/01/03 21:16:22;;;;;;;48.95;27.55;;;;;;;;;;6221333;23;20004;-87
2022/01/03 21:18:47;;;;;;;49.55;27.70;;;;;;;;;;6221484;23;20034;-87
2022/01/03 21:21:13;;;;;;;53.03;28.05;;;;;;;;;;6249454;23;20012;-87
2022/01/03 21:23:39;;;;;;;53.15;29.40;;;;;;;;;;6222630;23;20004;-87
2022/01/03 21:26:04;;;;;;;49.92;28.35;;;;;;;;;;6222742;23;20036;-87
2022/01/03 21:28:32;;;;;;;53.05;28.55;;;;;;;;;;6222694;23;20344;-87
2022/01/03 21:30:58;;;;;;;52.50;29.42;;;;;;;;;;6222191;23;20091;-88
2022/01/03 21:33:23;;;;;;;52.50;29.67;;;;;;;;;;6221957;23;20008;-89
2022/01/03 21:35:49;;;;;;;51.80;28.48;;;;;;;;;;6222818;23;20015;-88
2022/01/03 21:38:14;;;;;;;54.35;28.52;;;;;;;;;;6249153;23;20056;-88
2022/01/03 21:40:40;;;;;;;88.32;47.80;;;;;;;;;;6222331;23;20087;-88
2022/01/03 21:43:05;;;;;;;105.95;50.03;;;;;;;;;;6222232;23;20012;-87
2022/01/03 21:45:32;;;;;;;86.13;46.40;;;;;;;;;;6221426;23;20015;-87
2022/01/03 21:47:59;;;;;;;69.80;38.90;;;;;;;;;;6220997;23;20095;-87
2022/01/03 21:50:26;;;;;;;51.80;28.73;;;;;;;;;;6220561;23;20012;-88
2022/01/03 21:52:52;;;;;;;51.80;27.55;;;;;;;;;;6220343;23;20004;-88
2022/01/03 21:55:18;;;;;;;52.30;29.50;;;;;;;;;;6221125;23;20041;-88
2022/01/03 21:57:44;;;;;;;57.28;30.15;;;;;;;;;;6220579;23;20078;-88
2022/01/03 22:00:10;;;;;;;52.63;28.15;;;;;;;;;;6220893;23;20412;-89
2022/01/03 22:02:36;;;;;;;58.40;29.55;;;;;;;;;;6220887;23;20455;-87
2022/01/03 22:05:06;;;;;;;55.65;29.85;;;;;;;;;;6221334;23;20087;-87
2022/01/03 22:07:32;;;;;;;50.97;29.88;;;;;;;;;;6220569;23;20008;-87
2022/01/03 22:09:58;;;;;;;56.70;28.02;;;;;;;;;;6220702;23;20035;-87
2022/01/03 22:12:24;;;;;;;48.95;27.85;;;;;;;;;;6221205;23;20374;-88
2022/01/03 22:14:51;;;;;;;52.72;29.23;;;;;;;;;;6220527;23;20004;-86
2022/01/03 22:17:17;;;;;;;52.90;28.50;;;;;;;;;;6221241;23;20061;-87
2022/01/03 22:19:42;;;;;;;48.50;28.10;;;;;;;;;;6220740;23;20028;-87
2022/01/03 22:22:08;;;;;;;52.45;29.05;;;;;;;;;;6221147;23;20004;-88
2022/01/03 22:24:34;;;;;;;54.03;29.67;;;;;;;;;;6220759;23;20335;-87
2022/01/03 22:27:02;;;;;;;53.58;29.67;;;;;;;;;;6220202;23;20012;-87
2022/01/03 22:29:31;;;;;;;61.42;32.20;;;;;;;;;;6220545;23;20007;-88
2022/01/03 22:31:57;;;;;;;54.45;29.65;;;;;;;;;;6221279;23;20443;-87
2022/01/03 22:34:22;;;;;;;54.78;29.20;;;;;;;;;;6220747;23;20448;-88
2022/01/03 22:36:48;;;;;;;55.65;29.55;;;;;;;;;;6247879;23;20005;-89
